Time;durP1;ratioP1;P1;durP2;ratioP2;P2;SDS_P1;SDS_P2;PMS_P1;PMS_P2;Temp;Humidity;BMP_temperature;BMP_pressure;BME280_temperature;BME280_humidity;BME280_pressure;Samples;Min_cycle;Max_cycle;Signal;HPM_P1;HPM_P2
2023/04/03 00:02:08;;;;;;;1.70;1.40;;;18.70;54.70;;;;;;5048980;28;20202;-46
2023/04/03 00:04:40;;;;;;;1.83;1.27;;;18.70;54.80;;;;;;5030015;28;20214;-47
2023/04/03 00:07:08;;;;;;;1.47;1.10;;;18.60;54.70;;;;;;5049583;28;20202;-47
2023/04/03 00:09:40;;;;;;;1.33;1.23;;;18.70;54.70;;;;;;5046144;28;20190;-47
2023/04/03 00:12:08;;;;;;;1.30;1.20;;;18.70;54.70;;;;;;5047321;28;20194;-47
2023/04/03 00:14:38;;;;;;;1.07;0.80;;;18.60;54.70;;;;;;5045290;28;20741;-47
2023/04/03 00:17:09;;;;;;;2.07;1.13;;;18.60;54.60;;;;;;5048687;28;20234;-47
2023/04/03 00:19:40;;;;;;;0.83;0.80;;;18.60;54.70;;;;;;5052725;28;20198;-47
2023/04/03 00:22:08;;;;;;;1.30;1.10;;;18.60;54.60;;;;;;5046942;28;20933;-47
2023/04/03 00:24:38;;;;;;;3.43;1.20;;;18.60;54.70;;;;;;5043914;28;20284;-47
2023/04/03 00:27:06;;;;;;;1.20;1.10;;;18.60;54.70;;;;;;5048941;28;20501;-47
2023/04/03 00:29:36;;;;;;;1.57;1.00;;;18.60;54.70;;;;;;5050484;28;20324;-47
2023/04/03 00:32:07;;;;;;;1.30;1.20;;;18.60;54.70;;;;;;5049983;28;20698;-47
2023/04/03 00:34:41;;;;;;;1.03;0.97;;;18.60;54.80;;;;;;5037145;28;20326;-46
2023/04/03 00:37:11;;;;;;;1.43;1.00;;;18.60;54.80;;;;;;5037471;28;20198;-46
2023/04/03 00:39:42;;;;;;;1.20;1.10;;;18.50;55.00;;;;;;5048939;28;20195;-46
2023/04/03 00:42:14;;;;;;;1.47;1.30;;;18.50;55.10;;;;;;5049669;28;20221;-46
2023/04/03 00:44:46;;;;;;;1.63;1.30;;;18.40;55.30;;;;;;5046683;28;20933;-47
2023/04/03 00:47:17;;;;;;;1.80;1.13;;;18.40;55.40;;;;;;5049349;28;20655;-46
2023/04/03 00:49:54;;;;;;;1.30;1.07;;;18.30;56.10;;;;;;5016991;28;20600;-46
2023/04/03 00:52:28;;;;;;;1.67;1.00;;;18.30;55.50;;;;;;5047955;28;20517;-47
2023/04/03 00:55:01;;;;;;;1.73;1.23;;;18.20;55.50;;;;;;5049139;28;20206;-46
2023/04/03 00:57:38;;;;;;;1.30;1.10;;;18.20;55.60;;;;;;5033328;28;20202;-46
2023/04/03 01:00:17;;;;;;;1.17;0.97;;;18.20;55.60;;;;;;5045952;28;20214;-46
2023/04/03 01:02:45;;;;;;;1.20;1.10;;;18.10;55.60;;;;;;5031232;28;20213;-47
2023/04/03 01:05:20;;;;;;;1.17;0.83;;;18.10;55.70;;;;;;5049283;28;20203;-47
2023/04/03 01:07:51;;;;;;;2.00;1.30;;;18.10;55.70;;;;;;5033192;28;20190;-46
2023/04/03 01:10:20;;;;;;;1.43;1.13;;;18.10;55.80;;;;;;5024860;28;20210;-47
2023/04/03 01:13:01;;;;;;;1.17;1.07;;;18.10;55.80;;;;;;5035271;28;20293;-47
2023/04/03 01:15:34;;;;;;;1.17;0.90;;;18.10;55.80;;;;;;5034885;28;20530;-47
2023/04/03 01:18:16;;;;;;;1.40;1.10;;;18.00;55.80;;;;;;5049411;28;20653;-47
2023/04/03 01:21:24;;;;;;;1.10;1.00;;;18.00;55.90;;;;;;5049833;28;20201;-47
2023/04/03 01:24:17;;;;;;;1.17;1.07;;;18.00;55.90;;;;;;5046907;28;20210;-47
2023/04/03 01:26:48;;;;;;;1.37;1.20;;;17.90;56.00;;;;;;5049143;28;20186;-46
2023/04/03 01:29:17;;;;;;;1.50;1.00;;;17.90;56.00;;;;;;5048442;28;20523;-47
2023/04/03 01:32:07;;;;;;;1.00;0.90;;;17.90;56.00;;;;;;5051628;28;20191;-45
2023/04/03 01:34:37;;;;;;;1.30;0.83;;;17.90;56.10;;;;;;5042117;28;20509;-48
2023/04/03 01:37:08;;;;;;;1.50;0.93;;;17.90;56.10;;;;;;5048572;28;20195;-46
2023/04/03 01:39:37;;;;;;;1.20;1.10;;;17.90;56.10;;;;;;5030768;28;20213;-46
2023/04/03 01:42:12;;;;;;;1.63;1.40;;;17.90;56.10;;;;;;5048986;28;20198;-47
2023/04/03 01:44:41;;;;;;;1.00;0.90;;;17.90;56.20;;;;;;5045811;28;20206;-47
2023/04/03 01:47:12;;;;;;;1.30;1.10;;;17.80;56.20;;;;;;5043704;28;20268;-46
2023/04/03 01:49:42;;;;;;;1.70;1.20;;;17.80;56.20;;;;;;5030918;28;20202;-47
2023/04/03 01:52:13;;;;;;;2.40;1.00;;;17.80;56.20;;;;;;5048851;28;20190;-47
2023/04/03 01:54:43;;;;;;;0.90;0.77;;;17.80;56.20;;;;;;5045457;28;20580;-46
2023/04/03 01:57:14;;;;;;;1.10;1.00;;;17.80;56.20;;;;;;5048782;28;20210;-47
2023/04/03 01:59:41;;;;;;;1.30;1.00;;;17.80;56.30;;;;;;5045663;28;20205;-46
2023/04/03 02:02:12;;;;;;;1.30;1.00;;;17.80;56.30;;;;;;5035327;28;20263;-46
2023/04/03 02:04:41;;;;;;;1.00;0.90;;;17.80;56.30;;;;;;5044144;28;20236;-47
2023/04/03 02:07:09;;;;;;;1.33;0.90;;;17.80;56.30;;;;;;5042850;28;20224;-46
2023/04/03 02:09:47;;;;;;;1.10;0.90;;;17.70;56.30;;;;;;5028084;28;20198;-47
2023/04/03 02:12:17;;;;;;;1.27;0.90;;;17.70;56.30;;;;;;5045500;28;20214;-47
2023/04/03 02:14:46;;;;;;;1.00;0.90;;;17.70;56.30;;;;;;5047081;28;20201;-47
2023/04/03 02:17:15;;;;;;;1.10;0.90;;;17.70;56.40;;;;;;5050086;28;20578;-47
2023/04/03 02:19:45;;;;;;;1.63;1.10;;;17.70;56.50;;;;;;5048417;28;20229;-47
2023/04/03 02:22:25;;;;;;;1.20;1.07;;;17.70;56.90;;;;;;5045250;28;20240;-46
2023/04/03 02:24:55;;;;;;;1.03;0.93;;;17.70;57.30;;;;;;5044025;28;20234;-46
2023/04/03 02:27:24;;;;;;;1.90;1.10;;;17.80;57.30;;;;;;5030797;28;20636;-46
2023/04/03 02:29:54;;;;;;;2.90;1.00;;;17.80;57.30;;;;;;5048165;28;20198;-46
2023/04/03 02:32:24;;;;;;;1.00;0.90;;;17.80;57.30;;;;;;5033474;28;20543;-47
2023/04/03 02:34:52;;;;;;;1.20;1.00;;;17.80;57.30;;;;;;5030761;28;20203;-46
2023/04/03 02:37:22;;;;;;;0.80;0.80;;;17.80;57.60;;;;;;5028311;28;20222;-47
2023/04/03 02:39:51;;;;;;;1.57;1.10;;;17.70;57.60;;;;;;5048280;28;20191;-47
2023/04/03 02:42:23;;;;;;;1.40;0.90;;;17.70;57.60;;;;;;5046705;28;20197;-46
2023/04/03 02:44:55;;;;;;;1.40;1.07;;;17.70;57.70;;;;;;5049576;28;20707;-51
2023/04/03 02:47:28;;;;;;;1.70;1.17;;;17.70;57.80;;;;;;5048792;28;20208;-47
2023/04/03 02:49:59;;;;;;;1.70;1.20;;;17.70;57.80;;;;;;5043751;28;20380;-46
2023/04/03 02:52:30;;;;;;;1.07;0.90;;;17.70;57.80;;;;;;5045296;28;20198;-47
2023/04/03 02:55:00;;;;;;;1.10;1.00;;;17.70;57.80;;;;;;5048120;28;20229;-46
2023/04/03 02:57:31;;;;;;;1.37;0.90;;;17.80;57.70;;;;;;5042855;28;20203;-46
2023/04/03 03:00:03;;;;;;;1.33;1.17;;;17.70;57.40;;;;;;5040398;28;20189;-47
2023/04/03 03:02:31;;;;;;;2.00;1.03;;;17.70;57.50;;;;;;5042485;28;20660;-46
2023/04/03 03:05:01;;;;;;;1.33;1.13;;;17.70;57.40;;;;;;5047866;28;20187;-46
2023/04/03 03:07:30;;;;;;;1.80;1.20;;;17.80;57.50;;;;;;5023288;28;20190;-46
2023/04/03 03:10:06;;;;;;;1.50;1.23;;;17.70;57.50;;;;;;5049524;28;20190;-47
2023/04/03 03:12:35;;;;;;;0.73;0.73;;;17.70;57.60;;;;;;5039160;28;20206;-47
2023/04/03 03:15:07;;;;;;;1.20;1.10;;;17.70;57.50;;;;;;5056798;28;20195;-47
2023/04/03 03:17:38;;;;;;;1.13;0.90;;;17.70;57.40;;;;;;5034294;28;20234;-47
2023/04/03 03:20:09;;;;;;;1.30;0.80;;;17.70;57.50;;;;;;5017017;28;20197;-47
2023/04/03 03:22:39;;;;;;;1.57;1.00;;;17.80;57.50;;;;;;5048853;28;20221;-46
2023/04/03 03:25:10;;;;;;;1.43;1.00;;;17.70;57.50;;;;;;5048778;28;20291;-48
2023/04/03 03:27:39;;;;;;;1.50;1.10;;;17.70;57.40;;;;;;5051202;28;20634;-47
2023/04/03 03:30:10;;;;;;;0.93;0.90;;;17.70;57.40;;;;;;5018465;28;20225;-46
2023/04/03 03:32:39;;;;;;;2.17;1.00;;;17.80;57.40;;;;;;5048622;28;20411;-46
2023/04/03 03:35:08;;;;;;;1.37;1.00;;;17.80;57.40;;;;;;5051243;28;20260;-47
2023/04/03 03:37:39;;;;;;;1.73;1.00;;;17.80;57.30;;;;;;5048578;28;20211;-47
2023/04/03 03:40:07;;;;;;;1.53;1.10;;;17.80;57.20;;;;;;5050356;28;20205;-46
2023/04/03 03:42:50;;;;;;;1.10;0.97;;;17.80;57.10;;;;;;5050818;28;20214;-47
2023/04/03 03:45:22;;;;;;;1.57;0.90;;;17.80;57.10;;;;;;5055562;28;20531;-47
2023/04/03 03:47:49;;;;;;;1.07;0.93;;;17.80;57.20;;;;;;5033422;28;20198;-47
2023/04/03 03:50:18;;;;;;;1.30;1.00;;;17.80;57.10;;;;;;5047957;28;20216;-47
2023/04/03 03:52:47;;;;;;;1.10;1.00;;;17.80;57.10;;;;;;5031280;28;20216;-46
2023/04/03 03:55:16;;;;;;;3.47;0.90;;;17.80;57.10;;;;;;5050373;28;20190;-46
2023/04/03 03:57:47;;;;;;;1.20;1.10;;;17.80;57.20;;;;;;5050853;28;20190;-47
2023/04/03 04:00:19;;;;;;;1.10;1.00;;;17.80;57.10;;;;;;5033583;28;20374;-47
2023/04/03 04:02:48;;;;;;;1.10;1.00;;;17.80;57.10;;;;;;5047388;28;20202;-46
2023/04/03 04:05:19;;;;;;;1.17;0.83;;;17.80;57.10;;;;;;5051046;28;20202;-46
2023/04/03 04:07:52;;;;;;;1.40;1.00;;;17.80;57.10;;;;;;5050720;28;20202;-46
2023/04/03 04:10:24;;;;;;;1.33;0.97;;;17.80;57.00;;;;;;5047289;28;20209;-47
2023/04/03 04:12:53;;;;;;;3.53;1.20;;;17.80;57.10;;;;;;5048565;28;20230;-47
2023/04/03 04:15:27;;;;;;;1.43;1.10;;;17.80;57.00;;;;;;5053954;28;20206;-47
2023/04/03 04:18:05;;;;;;;1.00;0.80;;;17.80;57.00;;;;;;5051335;28;20233;-46
2023/04/03 04:20:34;;;;;;;1.33;1.00;;;17.80;56.70;;;;;;5051177;28;20893;-47
2023/04/03 04:23:03;;;;;;;1.00;0.87;;;17.80;56.60;;;;;;5051167;28;20198;-47
2023/04/03 04:25:34;;;;;;;1.00;0.90;;;17.80;56.60;;;;;;5028247;28;20231;-47
2023/04/03 04:28:05;;;;;;;3.43;1.27;;;17.80;56.60;;;;;;5048266;28;20285;-47
2023/04/03 04:30:36;;;;;;;2.23;1.03;;;17.80;56.60;;;;;;5055621;28;20210;-46
2023/04/03 04:33:06;;;;;;;1.17;1.03;;;17.70;56.60;;;;;;5051195;28;20749;-47
2023/04/03 04:35:37;;;;;;;1.20;1.10;;;17.70;56.70;;;;;;5033738;28;20283;-47
2023/04/03 04:38:08;;;;;;;1.47;0.90;;;17.60;56.70;;;;;;5047354;28;20267;-47
2023/04/03 04:40:40;;;;;;;1.00;0.90;;;17.50;56.80;;;;;;5048232;28;20418;-47
2023/04/03 04:43:14;;;;;;;1.43;0.83;;;17.50;56.90;;;;;;5043037;28;20226;-46
2023/04/03 04:46:12;;;;;;;1.33;1.23;;;17.50;57.00;;;;;;5048249;28;20218;-47
2023/04/03 04:48:53;;;;;;;0.80;0.60;;;17.40;57.00;;;;;;5047711;28;20721;-49
2023/04/03 04:51:22;;;;;;;1.60;0.97;;;17.30;57.20;;;;;;5050656;28;20190;-47
2023/04/03 04:53:51;;;;;;;2.73;0.90;;;17.30;57.30;;;;;;5050833;28;20256;-47
2023/04/03 04:56:23;;;;;;;0.70;0.60;;;17.20;57.40;;;;;;5024877;28;20202;-47
2023/04/03 04:58:55;;;;;;;1.23;0.80;;;17.20;58.00;;;;;;5051467;28;20277;-46
2023/04/03 05:01:27;;;;;;;1.97;1.00;;;17.20;57.40;;;;;;5047167;28;20308;-47
2023/04/03 05:03:57;;;;;;;1.23;0.80;;;17.10;57.40;;;;;;5049897;28;20194;-47
2023/04/03 05:06:48;;;;;;;1.17;0.80;;;17.10;57.60;;;;;;5048197;28;20835;-47
2023/04/03 05:09:32;;;;;;;1.43;1.00;;;17.10;57.50;;;;;;5052463;28;20837;-47
2023/04/03 05:12:02;;;;;;;1.60;1.00;;;17.10;57.60;;;;;;5042917;28;20285;-47
2023/04/03 05:14:33;;;;;;;1.40;1.13;;;17.00;57.60;;;;;;5031670;28;20636;-46
2023/04/03 05:17:06;;;;;;;1.67;1.00;;;17.00;57.60;;;;;;5049219;28;20254;-47
2023/04/03 05:19:35;;;;;;;1.60;1.00;;;16.90;57.60;;;;;;5049740;28;20190;-47
2023/04/03 05:22:21;;;;;;;1.17;0.90;;;16.90;57.70;;;;;;5049493;28;20230;-47
2023/04/03 05:24:52;;;;;;;1.40;0.87;;;16.90;57.80;;;;;;5046553;28;20228;-47
2023/04/03 05:27:27;;;;;;;1.40;1.00;;;16.90;57.80;;;;;;5055684;28;20210;-47
2023/04/03 05:29:59;;;;;;;2.10;0.93;;;16.80;57.80;;;;;;5052908;28;20205;-47
2023/04/03 05:32:29;;;;;;;0.80;0.80;;;16.80;57.80;;;;;;5030406;28;20256;-47
2023/04/03 05:35:00;;;;;;;2.37;1.00;;;16.80;57.90;;;;;;5036479;28;20206;-47
2023/04/03 05:37:32;;;;;;;1.10;1.00;;;16.80;57.90;;;;;;5047071;28;20221;-47
2023/04/03 05:40:06;;;;;;;1.67;0.90;;;16.80;57.90;;;;;;5046023;28;20615;-47
2023/04/03 05:42:37;;;;;;;2.83;1.23;;;16.80;57.90;;;;;;5047052;28;20273;-47
2023/04/03 05:45:08;;;;;;;1.77;1.17;;;16.80;57.90;;;;;;5028793;28;20200;-47
2023/04/03 05:47:40;;;;;;;0.93;0.80;;;16.70;57.80;;;;;;5048622;28;20209;-46
2023/04/03 05:50:11;;;;;;;1.60;0.80;;;16.70;57.80;;;;;;5046394;28;20214;-47
2023/04/03 05:52:49;;;;;;;2.47;1.00;;;16.70;57.90;;;;;;5045654;28;20198;-46
2023/04/03 05:55:22;;;;;;;2.77;0.70;;;16.70;57.90;;;;;;5048522;28;20553;-46
2023/04/03 05:57:50;;;;;;;0.97;0.70;;;16.70;57.80;;;;;;5046174;28;20214;-47
2023/04/03 06:00:22;;;;;;;1.03;0.80;;;16.70;57.90;;;;;;5045771;28;20233;-47
2023/04/03 06:02:50;;;;;;;1.00;0.67;;;16.70;57.80;;;;;;5048648;28;20228;-47
2023/04/03 06:05:20;;;;;;;1.00;0.70;;;16.60;57.80;;;;;;5030845;28;20667;-46
2023/04/03 06:08:01;;;;;;;2.60;0.80;;;16.60;57.80;;;;;;5048553;28;20214;-47
2023/04/03 06:10:33;;;;;;;1.47;0.90;;;16.60;57.80;;;;;;5046305;28;20308;-47
2023/04/03 06:13:02;;;;;;;1.23;0.73;;;16.60;57.80;;;;;;5051211;28;20230;-47
2023/04/03 06:15:34;;;;;;;2.43;0.90;;;16.60;57.70;;;;;;5047542;28;20210;-47
2023/04/03 06:18:08;;;;;;;0.90;0.70;;;16.60;57.70;;;;;;5030370;28;20719;-47
2023/04/03 06:20:51;;;;;;;1.37;0.70;;;16.60;57.70;;;;;;5048385;28;20222;-46
2023/04/03 06:23:22;;;;;;;0.80;0.70;;;16.50;57.70;;;;;;5048337;28;20775;-47
2023/04/03 06:25:55;;;;;;;1.20;0.73;;;16.60;57.70;;;;;;5049939;28;20201;-47
2023/04/03 06:28:25;;;;;;;1.60;0.77;;;16.60;57.70;;;;;;5046659;28;20190;-47
2023/04/03 06:30:56;;;;;;;1.47;0.87;;;16.60;57.70;;;;;;5048290;28;20221;-48
2023/04/03 06:33:37;;;;;;;2.30;0.80;;;16.50;57.70;;;;;;5049550;28;20664;-46
2023/04/03 06:36:07;;;;;;;4.37;1.00;;;16.50;57.60;;;;;;5046949;28;20202;-47
2023/04/03 06:38:48;;;;;;;1.50;1.00;;;16.50;57.60;;;;;;5045913;28;20296;-47
2023/04/03 06:41:32;;;;;;;7.03;1.57;;;16.50;58.30;;;;;;5034708;28;20301;-47
2023/04/03 06:44:10;;;;;;;17.40;4.30;;;16.50;58.10;;;;;;5055483;28;20192;-48
2023/04/03 06:46:48;;;;;;;14.30;4.37;;;16.60;60.30;;;;;;5053087;28;20288;-46
2023/04/03 06:49:19;;;;;;;11.80;3.70;;;16.50;61.70;;;;;;5052191;28;20263;-45
2023/04/03 06:51:50;;;;;;;15.53;3.53;;;16.50;60.60;;;;;;5055157;28;20623;-47
2023/04/03 06:54:20;;;;;;;16.10;4.00;;;16.50;60.30;;;;;;5053759;28;20352;-47
2023/04/03 06:56:52;;;;;;;9.33;3.23;;;16.50;60.10;;;;;;5068574;28;20679;-46
2023/04/03 06:59:23;;;;;;;10.33;3.47;;;16.50;59.90;;;;;;5054795;28;20198;-46
2023/04/03 07:01:54;;;;;;;15.13;3.17;;;16.50;59.60;;;;;;5053217;28;20242;-47
2023/04/03 07:04:29;;;;;;;6.70;2.60;;;16.50;59.40;;;;;;5052961;28;20600;-47
2023/04/03 07:06:57;;;;;;;8.03;3.07;;;16.50;59.30;;;;;;5037166;28;20224;-47
2023/04/03 07:09:28;;;;;;;5.97;2.37;;;16.40;59.10;;;;;;5055820;28;20750;-46
2023/04/03 07:12:00;;;;;;;8.17;2.70;;;16.40;59.00;;;;;;5064921;28;20198;-46
2023/04/03 07:14:30;;;;;;;10.27;2.57;;;16.40;58.90;;;;;;5049262;28;20648;-47
2023/04/03 07:17:02;;;;;;;6.13;2.30;;;16.40;58.70;;;;;;5054430;28;20228;-47
2023/04/03 07:19:31;;;;;;;6.77;2.23;;;16.50;58.80;;;;;;5055197;28;20209;-47
2023/04/03 07:22:02;;;;;;;4.63;1.70;;;16.40;58.60;;;;;;5054979;28;20209;-47
2023/04/03 07:24:33;;;;;;;4.83;2.13;;;16.40;58.50;;;;;;5049936;28;20199;-47
2023/04/03 07:27:03;;;;;;;6.57;2.40;;;16.40;58.50;;;;;;5041591;28;20264;-46
2023/04/03 07:29:37;;;;;;;5.87;1.80;;;16.40;58.40;;;;;;5054989;28;20190;-47
2023/04/03 07:32:10;;;;;;;6.00;2.30;;;16.40;58.30;;;;;;5054970;28;20204;-46
2023/04/03 07:34:44;;;;;;;5.17;1.87;;;16.40;58.30;;;;;;5053176;28;20512;-47
2023/04/03 07:37:17;;;;;;;5.37;1.73;;;16.40;58.30;;;;;;5052388;28;20675;-47
2023/04/03 07:39:49;;;;;;;4.83;1.83;;;16.40;58.30;;;;;;5037206;28;20240;-47
2023/04/03 07:42:21;;;;;;;2.37;1.37;;;16.40;58.20;;;;;;5057064;28;20202;-46
2023/04/03 07:44:51;;;;;;;7.80;1.80;;;16.40;58.10;;;;;;5054273;28;20662;-47
2023/04/03 07:47:26;;;;;;;3.97;2.00;;;16.30;58.00;;;;;;5054458;28;20218;-47
2023/04/03 07:49:57;;;;;;;4.47;1.60;;;16.30;58.10;;;;;;5051045;28;20213;-46
2023/04/03 07:52:25;;;;;;;3.30;1.33;;;16.30;58.00;;;;;;5051573;28;20194;-47
2023/04/03 07:54:55;;;;;;;3.57;1.23;;;16.30;58.10;;;;;;5035407;28;20203;-46
2023/04/03 07:57:26;;;;;;;4.50;1.50;;;16.30;57.90;;;;;;5051769;28;20202;-47
2023/04/03 07:59:59;;;;;;;2.17;1.50;;;16.40;58.00;;;;;;5050933;28;20202;-46
2023/04/03 08:02:28;;;;;;;4.67;1.63;;;16.30;57.90;;;;;;5033372;28;20218;-46
2023/04/03 08:05:00;;;;;;;3.33;1.60;;;16.30;57.90;;;;;;5052908;28;20194;-46
2023/04/03 08:07:33;;;;;;;4.67;1.50;;;16.30;57.90;;;;;;5053708;28;20214;-47
2023/04/03 08:10:02;;;;;;;6.50;1.50;;;16.30;57.90;;;;;;5058075;28;20734;-47
2023/04/03 08:12:33;;;;;;;4.50;1.57;;;16.30;57.80;;;;;;5030546;28;20195;-46
2023/04/03 08:15:03;;;;;;;2.67;1.33;;;16.30;57.80;;;;;;5052759;28;20202;-47
2023/04/03 08:17:32;;;;;;;2.43;1.23;;;16.30;57.80;;;;;;5031292;28;20634;-47
2023/04/03 08:20:07;;;;;;;3.60;1.60;;;16.30;57.70;;;;;;5051965;28;20616;-46
2023/04/03 08:22:41;;;;;;;2.63;1.40;;;16.30;57.70;;;;;;5051324;28;20198;-46
2023/04/03 08:25:15;;;;;;;4.37;1.60;;;16.30;57.70;;;;;;5054672;28;20215;-47
2023/04/03 08:27:45;;;;;;;2.03;1.40;;;16.30;57.70;;;;;;5051774;28;20206;-46
2023/04/03 08:30:17;;;;;;;2.00;1.00;;;16.30;57.70;;;;;;5051654;28;20526;-47
2023/04/03 08:32:48;;;;;;;3.23;1.40;;;16.30;57.70;;;;;;5049648;28;20566;-46
2023/04/03 08:35:19;;;;;;;4.10;1.50;;;16.30;57.60;;;;;;5043982;28;20190;-47
2023/04/03 08:37:50;;;;;;;1.73;1.10;;;16.30;57.70;;;;;;5048037;28;20624;-46
2023/04/03 08:40:24;;;;;;;1.93;1.00;;;16.30;57.70;;;;;;5053321;28;20248;-47
2023/04/03 08:43:23;;;;;;;3.37;1.20;;;16.30;57.60;;;;;;5034039;28;20690;-47
2023/04/03 08:46:01;;;;;;;2.97;1.10;;;16.30;57.60;;;;;;5034484;28;20190;-47
2023/04/03 08:48:39;;;;;;;2.67;1.40;;;16.30;57.60;;;;;;5028116;28;20226;-47
2023/04/03 08:51:19;;;;;;;2.87;1.10;;;16.30;57.60;;;;;;5038996;28;20690;-47
2023/04/03 08:54:15;;;;;;;2.97;1.13;;;16.30;57.60;;;;;;5055067;28;20278;-46
2023/04/03 08:56:49;;;;;;;3.13;1.20;;;16.20;57.40;;;;;;5049037;28;20194;-47
2023/04/03 08:59:30;;;;;;;1.80;0.90;;;16.30;57.60;;;;;;5051701;28;20190;-46
2023/04/03 09:02:39;;;;;;;2.00;1.00;;;16.30;57.60;;;;;;5048521;28;20242;-46
2023/04/03 09:05:24;;;;;;;1.97;0.87;;;16.30;57.60;;;;;;5018384;28;20615;-46
2023/04/03 09:08:04;;;;;;;2.30;1.00;;;16.20;57.60;;;;;;5031606;28;20230;-47
2023/04/03 09:10:43;;;;;;;1.40;1.10;;;16.30;57.60;;;;;;5034739;28;20580;-46
2023/04/03 09:13:50;;;;;;;1.50;0.90;;;16.30;57.60;;;;;;5048879;28;20210;-46
2023/04/03 09:16:40;;;;;;;1.23;1.10;;;16.30;57.50;;;;;;5048455;28;20557;-46
2023/04/03 09:19:32;;;;;;;2.73;1.10;;;16.30;57.50;;;;;;5050133;28;20213;-47
2023/04/03 09:22:26;;;;;;;1.27;0.83;;;16.20;57.40;;;;;;5039814;28;20624;-46
2023/04/03 09:25:25;;;;;;;1.87;1.20;;;16.30;57.30;;;;;;5031846;28;20265;-46
2023/04/03 09:28:09;;;;;;;1.33;0.80;;;16.30;57.40;;;;;;5033668;28;20202;-47
2023/04/03 09:30:39;;;;;;;1.23;0.90;;;16.30;57.30;;;;;;5046909;28;20656;-47
2023/04/03 09:33:12;;;;;;;1.93;0.90;;;16.30;57.20;;;;;;5050053;28;20198;-46
2023/04/03 09:35:41;;;;;;;2.03;0.87;;;16.30;57.30;;;;;;5031676;28;20252;-47
2023/04/03 09:38:20;;;;;;;1.70;0.90;;;16.30;57.20;;;;;;5030604;28;20223;-47
2023/04/03 09:41:06;;;;;;;0.90;0.60;;;16.30;57.20;;;;;;5032567;28;20699;-47
2023/04/03 09:43:38;;;;;;;1.60;0.77;;;16.30;57.00;;;;;;5050323;28;20206;-46
2023/04/03 09:46:33;;;;;;;1.43;0.90;;;16.30;57.00;;;;;;5032739;28;20224;-46
2023/04/03 09:49:06;;;;;;;3.00;1.10;;;16.30;56.90;;;;;;5047180;28;20280;-47
2023/04/03 09:51:41;;;;;;;1.77;0.67;;;16.30;56.90;;;;;;5022323;28;20194;-46
2023/04/03 09:54:32;;;;;;;2.40;1.10;;;16.30;56.90;;;;;;5053926;28;20497;-46
2023/04/03 09:57:18;;;;;;;1.80;0.87;;;16.30;57.00;;;;;;5049792;28;20824;-47
2023/04/03 10:00:04;;;;;;;0.67;0.60;;;16.30;56.90;;;;;;5038024;28;20768;-47
2023/04/03 10:02:40;;;;;;;1.50;0.80;;;16.30;57.00;;;;;;5044055;28;20214;-46
2023/04/03 10:05:41;;;;;;;1.40;0.70;;;16.30;56.90;;;;;;5031978;28;20671;-47
2023/04/03 10:08:14;;;;;;;1.17;1.00;;;16.30;57.00;;;;;;5032561;28;20237;-47
2023/04/03 10:11:16;;;;;;;0.90;0.57;;;16.30;57.00;;;;;;5047679;28;20518;-47
2023/04/03 10:14:03;;;;;;;1.23;0.77;;;16.30;56.90;;;;;;5030535;28;20667;-46
2023/04/03 10:17:03;;;;;;;0.87;0.63;;;16.30;56.90;;;;;;5011845;28;20207;-47
2023/04/03 10:19:56;;;;;;;1.43;0.70;;;16.30;56.80;;;;;;5042736;28;20261;-46
2023/04/03 10:23:00;;;;;;;1.03;0.83;;;16.30;56.90;;;;;;5046542;28;20186;-47
2023/04/03 10:26:04;;;;;;;1.53;0.93;;;16.30;56.90;;;;;;5046675;28;20214;-46
2023/04/03 10:28:55;;;;;;;1.90;0.80;;;16.30;56.80;;;;;;5034588;28;20234;-46
2023/04/03 10:31:47;;;;;;;1.70;0.90;;;16.30;56.90;;;;;;5031203;28;20194;-47
2023/04/03 10:34:22;;;;;;;0.80;0.70;;;16.30;56.80;;;;;;5034383;28;20217;-47
2023/04/03 10:37:54;;;;;;;1.20;0.60;;;16.30;56.90;;;;;;5051072;28;20733;-46
2023/04/03 10:41:04;;;;;;;0.90;0.90;;;16.30;56.70;;;;;;4977406;28;20352;-46
2023/04/03 10:43:52;;;;;;;1.07;0.90;;;16.30;56.70;;;;;;5041068;28;20252;-46
2023/04/03 10:46:35;;;;;;;1.13;0.50;;;16.30;56.80;;;;;;5038822;28;20262;-46
2023/04/03 10:50:03;;;;;;;1.23;0.50;;;16.30;56.80;;;;;;5031938;28;20582;-46
2023/04/03 10:53:04;;;;;;;1.13;0.67;;;16.30;56.90;;;;;;5023473;28;20222;-46
2023/04/03 10:55:56;;;;;;;1.90;0.77;;;16.30;56.90;;;;;;5053151;28;20198;-46
2023/04/03 10:58:45;;;;;;;1.00;0.50;;;16.40;56.60;;;;;;5049809;28;20258;-46
2023/04/03 11:01:20;;;;;;;0.73;0.73;;;16.40;56.40;;;;;;5034791;28;20289;-47
2023/04/03 11:03:59;;;;;;;0.77;0.50;;;16.40;56.60;;;;;;5038019;28;20199;-46
2023/04/03 11:06:40;;;;;;;0.80;0.60;;;16.40;56.20;;;;;;5052831;28;20198;-46
2023/04/03 11:09:41;;;;;;;1.73;0.67;;;16.40;56.00;;;;;;5028506;28;20219;-47
2023/04/03 11:12:36;;;;;;;2.53;0.70;;;16.40;55.90;;;;;;5036516;28;20190;-46
2023/04/03 11:15:21;;;;;;;0.47;0.40;;;16.50;56.30;;;;;;5048385;28;20236;-46
2023/04/03 11:18:20;;;;;;;0.73;0.50;;;16.40;56.40;;;;;;5027244;28;20239;-47
2023/04/03 11:21:12;;;;;;;1.00;0.43;;;16.40;56.30;;;;;;5036560;28;20275;-47
2023/04/03 11:23:44;;;;;;;1.33;0.53;;;16.40;56.20;;;;;;5037788;28;20284;-47
2023/04/03 11:26:21;;;;;;;0.73;0.40;;;16.40;56.20;;;;;;5046645;28;20229;-47
2023/04/03 11:29:24;;;;;;;1.23;0.70;;;16.40;56.30;;;;;;5034381;28;20229;-46
2023/04/03 11:32:28;;;;;;;0.63;0.50;;;16.40;56.40;;;;;;5037357;28;20213;-47
2023/04/03 11:35:00;;;;;;;1.27;0.60;;;16.40;56.10;;;;;;5056931;28;20190;-46
2023/04/03 11:37:45;;;;;;;1.03;0.50;;;16.50;56.10;;;;;;5017425;28;20279;-47
2023/04/03 11:40:34;;;;;;;1.00;0.50;;;16.50;55.80;;;;;;5051474;28;20286;-46
2023/04/03 11:43:29;;;;;;;0.60;0.50;;;16.50;55.80;;;;;;5025899;28;20194;-47
2023/04/03 11:46:07;;;;;;;0.73;0.50;;;16.50;56.10;;;;;;5051039;28;20206;-47
2023/04/03 11:48:46;;;;;;;1.00;0.53;;;16.50;55.90;;;;;;5049567;28;20263;-47
2023/04/03 11:51:20;;;;;;;1.47;0.70;;;16.50;55.70;;;;;;5034562;28;20194;-47
2023/04/03 11:53:49;;;;;;;1.40;0.60;;;16.50;55.90;;;;;;5051430;28;20217;-47
2023/04/03 11:56:30;;;;;;;0.30;0.30;;;16.50;55.70;;;;;;5050136;28;20240;-47
2023/04/03 11:59:22;;;;;;;0.30;0.30;;;16.60;55.80;;;;;;5051244;28;20261;-47
2023/04/03 12:01:56;;;;;;;1.53;0.40;;;16.50;55.80;;;;;;5049454;28;20687;-46
2023/04/03 12:04:30;;;;;;;0.70;0.63;;;16.60;55.90;;;;;;5043758;28;20217;-46
2023/04/03 12:07:18;;;;;;;1.10;0.43;;;16.60;55.80;;;;;;5051030;28;20194;-46
2023/04/03 12:09:58;;;;;;;1.00;0.50;;;16.60;55.70;;;;;;5033415;28;20624;-47
2023/04/03 12:12:41;;;;;;;1.00;0.53;;;16.60;55.70;;;;;;5046743;28;21222;-47
2023/04/03 12:15:51;;;;;;;0.50;0.40;;;16.60;55.90;;;;;;5034379;28;20686;-47
2023/04/03 12:18:48;;;;;;;1.73;0.70;;;16.60;55.90;;;;;;5054968;28;20233;-47
2023/04/03 12:21:39;;;;;;;0.40;0.40;;;16.60;56.10;;;;;;5051280;28;20202;-47
2023/04/03 12:24:15;;;;;;;1.23;0.40;;;16.60;55.90;;;;;;5036547;28;20336;-47
2023/04/03 12:27:11;;;;;;;0.97;0.40;;;16.60;56.10;;;;;;5046998;28;20220;-47
2023/04/03 12:29:53;;;;;;;0.70;0.40;;;16.60;56.30;;;;;;5052392;28;20194;-47
2023/04/03 12:32:45;;;;;;;1.17;0.50;;;16.60;56.00;;;;;;5037926;28;20197;-47
2023/04/03 12:35:52;;;;;;;2.17;0.60;;;16.70;56.20;;;;;;5048844;28;20198;-47
2023/04/03 12:39:03;;;;;;;0.50;0.43;;;16.70;56.20;;;;;;5049675;28;20295;-46
2023/04/03 12:42:17;;;;;;;0.83;0.63;;;16.70;56.20;;;;;;5043014;28;20217;-46
2023/04/03 12:45:17;;;;;;;2.10;0.50;;;16.70;56.20;;;;;;5048932;28;20198;-47
2023/04/03 12:48:26;;;;;;;1.40;0.40;;;16.70;55.70;;;;;;5050620;28;20647;-47
2023/04/03 12:50:59;;;;;;;0.60;0.50;;;16.70;56.10;;;;;;5046334;28;20198;-47
2023/04/03 12:53:41;;;;;;;1.70;0.67;;;16.70;56.10;;;;;;5037845;28;20198;-46
2023/04/03 12:56:30;;;;;;;0.67;0.53;;;16.70;56.30;;;;;;5052877;28;20195;-46
2023/04/03 12:59:24;;;;;;;0.97;0.40;;;16.80;56.40;;;;;;5055821;28;20217;-47
2023/04/03 13:01:58;;;;;;;0.97;0.50;;;16.80;56.10;;;;;;5026060;28;20711;-47
2023/04/03 13:04:41;;;;;;;1.53;0.57;;;16.70;56.40;;;;;;5056984;28;20941;-46
2023/04/03 13:07:32;;;;;;;1.13;0.47;;;16.80;56.50;;;;;;5060623;28;20223;-46
2023/04/03 13:10:08;;;;;;;0.97;0.47;;;16.80;56.30;;;;;;5043216;28;20264;-46
2023/04/03 13:12:54;;;;;;;1.03;0.40;;;16.80;56.50;;;;;;5054423;28;20253;-47
2023/04/03 13:15:40;;;;;;;2.43;0.50;;;16.80;56.50;;;;;;5058109;28;20194;-47
2023/04/03 13:18:32;;;;;;;0.63;0.30;;;16.80;56.50;;;;;;5041184;28;20253;-46
2023/04/03 13:21:13;;;;;;;0.80;0.53;;;16.80;56.50;;;;;;5034724;28;20198;-46
2023/04/03 13:23:51;;;;;;;0.93;0.47;;;16.90;56.60;;;;;;5014407;28;20203;-47
2023/04/03 13:26:40;;;;;;;0.80;0.40;;;16.90;56.60;;;;;;5003505;28;20206;-47
2023/04/03 13:29:23;;;;;;;0.97;0.53;;;16.90;56.60;;;;;;5049927;28;20210;-47
2023/04/03 13:32:04;;;;;;;0.83;0.60;;;16.90;56.60;;;;;;5027667;28;20190;-47
2023/04/03 13:34:43;;;;;;;2.40;0.53;;;16.80;56.70;;;;;;5057997;28;20194;-47
2023/04/03 13:37:30;;;;;;;1.03;0.50;;;16.90;56.60;;;;;;5048407;28;20221;-46
2023/04/03 13:40:13;;;;;;;0.80;0.40;;;16.90;56.60;;;;;;5033529;28;20213;-46